logo
Search for airport 
image banner adimage banner adimage banner ad
image banner ad

TDPD - Roseau/Douglas Charles - Intl

Located in Roseau, Dominica

ICAO - TDPD, IATA - DOM

Data provided by Airmate  

General information

Coordinates: N15°32'48" W61°18'5"
Elevation is 90 feet MSL.
 
View others Airports in Saint Andrew

Operational data

Special qualification required
Current time UTC:
Current local time:
Weather
METAR: TDPD 231600Z VRB02KT 7000 VCSH BKN010 25/25 Q1016
TAF: TAF TDPD 231100Z 2312/2412 12008KT 9999 SCT018 SCT032
View NOTAMs / SUP AIP / TFR affecting this airport [VIEW]
Communications frequencies: [VIEW]

Runways:

RWY identifierQFULength (ft)Width (ft)SurfaceLDA (ft)
0970°5761148ASP
27250°5761148ASP

Airport contact information

Address: Roseau Dominica

Satellite view of TDPD